• Join FlightAware (Why Join?)
  • Login
  • US Flag 
05:35PM EDT


 

Airport Tracker/Info


-or-


 

Live Flight TrackerFlight Track Log ✈ EGF4432 ✈ 24-Apr-2013 ✈ KDCA - KBNA

Flight Track Log - Related Links

Times and Time Zones

All times are in EDT time to prevent confusion due to time zone crossing. See the EGF4432 flight status page for this flight to view local times or setup timezone preferences in your user account.

Time Position Orientation Groundspeed Altitude Reporting Facility
EDT Latitude Longitude Course Direction KTS MPH feet Rate Location/Type
05:17PM 38.7833 -77.0333 270° West 188 216 3,200  Level Potomac TRACON
05:18PM 38.8500 -77.3564 270° West  Level FlightAware Approximate
05:18PM 38.7333 -77.0500 195° South 223 257 4,900  Level Potomac TRACON
05:19PM 38.8500 -77.4640 270° West  Level FlightAware Approximate
05:19PM 38.7500 -77.1333 284° West 244 281 6,300  Level Potomac TRACON
05:20PM 38.8500 -77.5717 270° West  Level FlightAware Approximate
05:20PM 38.7667 -77.2167 284° West 233 268 9,100  Level Potomac TRACON
05:21PM 38.8500 -77.6794 270° West  Level FlightAware Approximate
05:21PM 38.7833 -77.3000 284° West 253 291 11,300  Level Potomac TRACON
05:22PM 38.8501 -77.7870 270° West  Level FlightAware Approximate
05:22PM 38.8167 -77.3833 297° West 286 329 12,200  Level Potomac TRACON
05:24PM 38.8233 -77.6194 272° West 310 357 15,100 1,500 Climbing Washington Center
05:25PM 38.8294 -77.7447 274° West 321 369 17,100 1,800 Climbing Washington Center
05:26PM 38.8358 -77.8489 275° West 321 369 18,700 1,380 Climbing Washington Center
05:27PM 38.8419 -77.9664 274° West 332 382 19,900 960 Climbing Washington Center
05:28PM 38.8500 -78.0892 275° West 338 389 20,700 1,140 Climbing Washington Center
05:29PM 38.8556 -78.2175 273° West 349 402 22,200 1,500 Climbing Washington Center
05:30PM 38.8528 -78.3372 268° West 349 402 23,800 1,500 Climbing Washington Center
05:31PM 38.8542 -78.4572 271° West 349 402 25,300 1,200 Climbing Washington Center
05:32PM 38.8514 -78.5772 268° West 349 402 26,300 840 Climbing Washington Center
05:33PM 38.8503 -78.6997 269° West 344 396 27,000 720 Climbing Washington Center
05:34PM 38.8492 -78.8275 269° West 355 409 27,800 1,200 Climbing Washington Center
05:35PM 38.8478 -78.9528 269° West 355 409 29,400 1,260 Climbing Washington Center
05:36PM 38.8442 -79.0753 268° West 355 409 30,400 1,020 Climbing Washington Center
05:37PM 38.8425 -79.2006 269° West 350 403 31,500 1,200 Climbing Washington Center
05:38PM 38.8203 -79.3194 257° West 350 403 32,800 720 Climbing Washington Center
05:39PM 38.7994 -79.4461 258° West 357 411 33,000 60 Climbing Washington Center
05:40PM 38.7767 -79.5756 257° West 365 420 33,000 600 Level Washington Center
05:41PM 38.7511 -79.7072 256° West 370 426 34,300 900 Climbing Washington Center
05:43PM 38.7047 -79.9403 256° West 334 384 36,000 480 Climbing Indianapolis Center
05:44PM 38.6800 -80.0750 257° West 325 374 36,000  Level Indianapolis Center
05:45PM 38.6597 -80.1847 257° West 317 365 36,000  Level Indianapolis Center
05:46PM 38.6394 -80.2922 256° West 312 359 36,000  Level Indianapolis Center
05:47PM 38.6192 -80.3992 256° West 310 357 36,000  Level Indianapolis Center
05:48PM 38.5986 -80.5067 256° West 310 357 36,000  Level Indianapolis Center
05:49PM 38.5783 -80.6147 257° West 314 361 36,000  Level Indianapolis Center
05:50PM 38.5564 -80.7233 256° West 315 362 36,000  Level Indianapolis Center
05:51PM 38.5311 -80.8544 256° West 317 365 36,000  Level Indianapolis Center
05:52PM 38.5092 -80.9667 256° West 324 373 36,000  Level Indianapolis Center
05:53PM 38.4869 -81.0806 256° West 329 379 36,000  Level Indianapolis Center
05:54PM 38.4653 -81.1936 256° West 327 376 36,000  Level Indianapolis Center
05:55PM 38.4431 -81.3061 256° West 325 374 36,000  Level Indianapolis Center
05:56PM 38.4203 -81.4161 255° West 319 367 36,000  Level Indianapolis Center
05:58PM 38.3989 -81.5258 256° West 317 365 36,000  Level Indianapolis Center
05:59PM 38.3767 -81.6358 256° West 318 366 36,000  Level Indianapolis Center
06:00PM 38.3503 -81.7661 256° West 315 362 36,000  Level Indianapolis Center
06:01PM 38.3214 -81.8736 251° West 319 367 36,000 -480 Level Indianapolis Center
06:02PM 38.2897 -81.9808 249° West 322 371 35,100 -1,020 Descending Indianapolis Center
06:03PM 38.2606 -82.0875 251° West 320 368 34,000 -1,020 Descending Indianapolis Center
06:04PM 38.2319 -82.1892 250° West 310 357 33,000 -540 Descending Indianapolis Center
06:05PM 38.2019 -82.2911 249° West 307 353 33,000 -480 Level Indianapolis Center
06:06PM 38.1731 -82.3978 251° West 318 366 32,100 -540 Descending Indianapolis Center
06:07PM 38.1367 -82.5219 250° West 329 379 32,000 -60 Descending Indianapolis Center
06:08PM 38.1058 -82.6297 250° West 327 376 32,000  Level Indianapolis Center
06:09PM 38.0742 -82.7369 249° West 325 374 32,000  Level Indianapolis Center
06:10PM 38.0389 -82.8628 250° West 326 375 32,000  Level Indianapolis Center
06:11PM 38.0019 -82.9672 246° West 327 376 32,000  Level Indianapolis Center
06:12PM 37.9519 -83.0642 237° Southwest 329 379 32,000  Level Indianapolis Center
06:13PM 37.9022 -83.1639 238° Southwest 334 384 32,000  Level Indianapolis Center
06:14PM 37.8528 -83.2622 238° Southwest 333 383 32,000  Level Indianapolis Center
06:15PM 37.7953 -83.3783 238° Southwest 335 386 32,000  Level Indianapolis Center
06:16PM 37.7461 -83.4758 237° Southwest 331 381 32,000  Level Indianapolis Center
06:17PM 37.6964 -83.5747 238° Southwest 333 383 32,000  Level Indianapolis Center
06:18PM 37.6475 -83.6722 238° Southwest 331 381 32,000  Level Indianapolis Center
06:19PM 37.5958 -83.7722 237° Southwest 338 389 32,000  Level Indianapolis Center
06:20PM 37.5375 -83.8872 237° Southwest 336 387 32,000  Level Indianapolis Center
06:21PM 37.4864 -83.9861 237° Southwest 338 389 32,000  Level Indianapolis Center
06:22PM 37.4369 -84.0861 238° Southwest 337 388 32,000  Level Indianapolis Center
06:23PM 37.3864 -84.1844 237° Southwest 337 388 32,000  Level Indianapolis Center
06:24PM 37.3353 -84.2825 237° Southwest 338 389 32,000 -60 Level Indianapolis Center
06:25PM 37.2758 -84.3975 237° Southwest 337 388 31,900 -540 Descending Indianapolis Center
06:26PM 37.2250 -84.4967 237° Southwest 340 391 30,900 -1,080 Descending Indianapolis Center
06:27PM 37.1725 -84.5981 237° Southwest 348 400 29,700 -1,320 Descending Indianapolis Center
06:29PM 37.1200 -84.6983 237° Southwest 346 398 28,200 -1,500 Descending Indianapolis Center
06:30PM 37.0669 -84.8011 237° Southwest 351 404 26,700 -1,500 Descending Indianapolis Center
06:31PM 37.0125 -84.9039 236° Southwest 340 391 25,200 -1,260 Descending Indianapolis Center
06:32PM 36.9594 -85.0056 237° Southwest 346 398 24,200 -1,140 Descending Indianapolis Center
06:33PM 36.8958 -85.1283 237° Southwest 351 404 22,900 -1,260 Descending Indianapolis Center
06:34PM 36.8433 -85.2269 236° Southwest 344 396 21,600 -1,320 Descending Indianapolis Center
06:35PM 36.7922 -85.3211 236° Southwest 333 383 20,200 -1,320 Descending Indianapolis Center
06:36PM 36.7411 -85.4175 237° Southwest 333 383 18,900 -1,200 Descending Indianapolis Center
06:37PM 36.6919 -85.5286 241° Southwest 339 390 17,700 -1,140 Descending Memphis Center
06:38PM 36.6397 -85.6325 238° Southwest 332 382 16,500 -1,200 Descending Memphis Center
06:39PM 36.5953 -85.7256 239° Southwest 327 376 15,300 -1,140 Descending Memphis Center
06:40PM 36.5531 -85.8236 242° Southwest 327 376 14,300 -2,700 Descending Memphis Center
06:41PM 36.5064 -85.9164 238° Southwest 327 376 10,000 -1,200 Descending Memphis Center
06:42PM 36.4617 -86.0092 239° Southwest 327 376 11,900 420 Climbing Memphis Center
06:43PM 36.4172 -86.1044 240° Southwest 327 376 10,900 -1,020 Descending Memphis Center
06:44PM 36.3781 -86.1839 239° Southwest 298 343 9,900 -1,020 Descending Memphis Center
06:45PM 36.3431 -86.2578 240° Southwest 263 303 8,900 -900 Descending Memphis Center
06:46PM 36.3119 -86.3239 240° Southwest 257 296 8,100 -900 Descending Memphis Center
06:47PM 36.2747 -86.4003 239° Southwest 262 302 7,100 -1,020 Descending Memphis Center
06:48PM 36.2394 -86.4714 238° Southwest 257 296 6,100 -600 Descending Memphis Center
06:49PM 36.1933 -86.5278 225° Southwest 246 283 6,000 -480 Descending Memphis Center
06:50PM 36.1294 -86.5511 196° South 238 274 5,200 -780 Descending Memphis Center
06:51PM 36.0656 -86.5800 200° South 238 274 4,500 -1,140 Descending Memphis Center
06:52PM 36.0058 -86.6031 197° South 232 267 3,000 -720 Descending Memphis Center
06:54PM 35.9667 -86.7000 243° Southwest 211 243 2,500 -300 Descending Nashville TRACON